sensor_id;sensor_type;location;lat;lon;timestamp;P1;durP1;ratioP1;P2;durP2;ratioP2
10711;SDS011;5407;51.234;6.804;2023-07-13T00:00:17;7.60;;;2.45;;
10711;SDS011;5407;51.234;6.804;2023-07-13T00:02:44;8.02;;;2.63;;
10711;SDS011;5407;51.234;6.804;2023-07-13T00:05:11;6.55;;;2.70;;
10711;SDS011;5407;51.234;6.804;2023-07-13T00:07:38;6.38;;;2.22;;
10711;SDS011;5407;51.234;6.804;2023-07-13T00:10:08;4.43;;;2.20;;
10711;SDS011;5407;51.234;6.804;2023-07-13T00:12:35;8.40;;;2.10;;
10711;SDS011;5407;51.234;6.804;2023-07-13T00:15:06;5.80;;;2.13;;
10711;SDS011;5407;51.234;6.804;2023-07-13T00:17:37;8.38;;;2.10;;
10711;SDS011;5407;51.234;6.804;2023-07-13T00:20:05;8.93;;;2.13;;
10711;SDS011;5407;51.234;6.804;2023-07-13T00:22:34;6.07;;;2.10;;
10711;SDS011;5407;51.234;6.804;2023-07-13T00:25:00;4.53;;;1.80;;
10711;SDS011;5407;51.234;6.804;2023-07-13T00:27:29;4.47;;;1.92;;
10711;SDS011;5407;51.234;6.804;2023-07-13T00:29:57;3.92;;;1.90;;
10711;SDS011;5407;51.234;6.804;2023-07-13T00:32:24;4.95;;;2.22;;
10711;SDS011;5407;51.234;6.804;2023-07-13T00:34:51;7.70;;;2.10;;
10711;SDS011;5407;51.234;6.804;2023-07-13T00:37:18;4.50;;;2.25;;
10711;SDS011;5407;51.234;6.804;2023-07-13T00:39:45;4.15;;;2.15;;
10711;SDS011;5407;51.234;6.804;2023-07-13T00:42:12;4.85;;;2.05;;
10711;SDS011;5407;51.234;6.804;2023-07-13T00:44:41;5.90;;;1.92;;
10711;SDS011;5407;51.234;6.804;2023-07-13T00:58:28;7.47;;;2.05;;
10711;SDS011;5407;51.234;6.804;2023-07-13T01:00:58;8.63;;;2.40;;
10711;SDS011;5407;51.234;6.804;2023-07-13T01:03:25;8.02;;;2.40;;
10711;SDS011;5407;51.234;6.804;2023-07-13T01:05:53;8.40;;;1.98;;
10711;SDS011;5407;51.234;6.804;2023-07-13T01:08:20;5.38;;;1.85;;
10711;SDS011;5407;51.234;6.804;2023-07-13T01:10:50;8.15;;;2.10;;
10711;SDS011;5407;51.234;6.804;2023-07-13T01:13:18;5.82;;;1.90;;
10711;SDS011;5407;51.234;6.804;2023-07-13T01:15:46;3.72;;;1.80;;
10711;SDS011;5407;51.234;6.804;2023-07-13T01:18:17;7.68;;;2.58;;
10711;SDS011;5407;51.234;6.804;2023-07-13T01:20:51;10.68;;;2.40;;
10711;SDS011;5407;51.234;6.804;2023-07-13T01:23:19;8.68;;;2.03;;
10711;SDS011;5407;51.234;6.804;2023-07-13T01:25:47;6.20;;;2.08;;
10711;SDS011;5407;51.234;6.804;2023-07-13T01:28:14;7.28;;;2.30;;
10711;SDS011;5407;51.234;6.804;2023-07-13T01:30:42;7.50;;;2.00;;
10711;SDS011;5407;51.234;6.804;2023-07-13T01:33:10;8.32;;;2.42;;
10711;SDS011;5407;51.234;6.804;2023-07-13T01:35:38;10.23;;;2.33;;
10711;SDS011;5407;51.234;6.804;2023-07-13T01:38:06;5.35;;;2.13;;
10711;SDS011;5407;51.234;6.804;2023-07-13T01:40:34;5.38;;;2.03;;
10711;SDS011;5407;51.234;6.804;2023-07-13T01:43:01;7.43;;;2.03;;
10711;SDS011;5407;51.234;6.804;2023-07-13T01:45:28;7.03;;;2.05;;
10711;SDS011;5407;51.234;6.804;2023-07-13T01:47:55;7.32;;;1.83;;
10711;SDS011;5407;51.234;6.804;2023-07-13T01:50:23;8.90;;;2.15;;
10711;SDS011;5407;51.234;6.804;2023-07-13T01:52:51;7.72;;;2.10;;
10711;SDS011;5407;51.234;6.804;2023-07-13T01:55:20;8.48;;;2.00;;
10711;SDS011;5407;51.234;6.804;2023-07-13T01:57:46;5.20;;;1.98;;
10711;SDS011;5407;51.234;6.804;2023-07-13T02:00:13;5.15;;;2.05;;
10711;SDS011;5407;51.234;6.804;2023-07-13T02:02:40;6.47;;;1.83;;
10711;SDS011;5407;51.234;6.804;2023-07-13T02:05:09;5.95;;;2.00;;
10711;SDS011;5407;51.234;6.804;2023-07-13T02:07:36;7.15;;;2.15;;
10711;SDS011;5407;51.234;6.804;2023-07-13T02:10:04;4.32;;;1.60;;
10711;SDS011;5407;51.234;6.804;2023-07-13T02:12:33;5.15;;;1.77;;
10711;SDS011;5407;51.234;6.804;2023-07-13T02:15:00;10.40;;;2.28;;
10711;SDS011;5407;51.234;6.804;2023-07-13T02:17:27;8.70;;;2.03;;
10711;SDS011;5407;51.234;6.804;2023-07-13T02:19:54;4.60;;;1.88;;
10711;SDS011;5407;51.234;6.804;2023-07-13T02:22:21;6.78;;;1.88;;
10711;SDS011;5407;51.234;6.804;2023-07-13T02:24:49;6.30;;;1.88;;
10711;SDS011;5407;51.234;6.804;2023-07-13T02:27:17;6.70;;;2.08;;
10711;SDS011;5407;51.234;6.804;2023-07-13T02:29:45;5.85;;;2.08;;
10711;SDS011;5407;51.234;6.804;2023-07-13T02:32:12;7.53;;;2.20;;
10711;SDS011;5407;51.234;6.804;2023-07-13T02:34:41;7.43;;;2.00;;
10711;SDS011;5407;51.234;6.804;2023-07-13T02:37:08;10.05;;;1.70;;
10711;SDS011;5407;51.234;6.804;2023-07-13T02:39:35;10.73;;;2.20;;
10711;SDS011;5407;51.234;6.804;2023-07-13T02:42:02;8.68;;;2.35;;
10711;SDS011;5407;51.234;6.804;2023-07-13T02:44:30;7.30;;;1.70;;
10711;SDS011;5407;51.234;6.804;2023-07-13T02:46:58;5.85;;;1.88;;
10711;SDS011;5407;51.234;6.804;2023-07-13T02:49:25;6.47;;;1.85;;
10711;SDS011;5407;51.234;6.804;2023-07-13T02:51:52;5.75;;;2.03;;
10711;SDS011;5407;51.234;6.804;2023-07-13T02:54:18;9.88;;;1.98;;
10711;SDS011;5407;51.234;6.804;2023-07-13T02:56:45;5.03;;;1.90;;
10711;SDS011;5407;51.234;6.804;2023-07-13T02:59:12;4.32;;;1.90;;
10711;SDS011;5407;51.234;6.804;2023-07-13T03:01:39;8.40;;;2.10;;
10711;SDS011;5407;51.234;6.804;2023-07-13T03:04:08;6.68;;;1.88;;
10711;SDS011;5407;51.234;6.804;2023-07-13T03:06:35;5.45;;;2.03;;
10711;SDS011;5407;51.234;6.804;2023-07-13T03:09:03;7.28;;;2.10;;
10711;SDS011;5407;51.234;6.804;2023-07-13T03:11:31;4.35;;;1.83;;
10711;SDS011;5407;51.234;6.804;2023-07-13T03:14:15;6.78;;;2.22;;
10711;SDS011;5407;51.234;6.804;2023-07-13T03:16:42;7.18;;;2.10;;
10711;SDS011;5407;51.234;6.804;2023-07-13T03:19:10;8.40;;;2.42;;
10711;SDS011;5407;51.234;6.804;2023-07-13T03:21:38;7.53;;;2.20;;
10711;SDS011;5407;51.234;6.804;2023-07-13T03:24:05;5.40;;;2.08;;
10711;SDS011;5407;51.234;6.804;2023-07-13T03:26:32;6.60;;;2.13;;
10711;SDS011;5407;51.234;6.804;2023-07-13T03:28:59;4.82;;;2.05;;
10711;SDS011;5407;51.234;6.804;2023-07-13T03:31:27;12.05;;;2.20;;
10711;SDS011;5407;51.234;6.804;2023-07-13T03:33:56;9.52;;;2.22;;
10711;SDS011;5407;51.234;6.804;2023-07-13T03:36:25;6.75;;;2.20;;
10711;SDS011;5407;51.234;6.804;2023-07-13T03:38:57;5.75;;;2.20;;
10711;SDS011;5407;51.234;6.804;2023-07-13T03:41:49;6.07;;;2.20;;
10711;SDS011;5407;51.234;6.804;2023-07-13T03:44:16;6.57;;;2.20;;
10711;SDS011;5407;51.234;6.804;2023-07-13T03:46:47;5.85;;;2.25;;
10711;SDS011;5407;51.234;6.804;2023-07-13T03:49:14;5.90;;;2.08;;
10711;SDS011;5407;51.234;6.804;2023-07-13T03:51:42;6.10;;;2.20;;
10711;SDS011;5407;51.234;6.804;2023-07-13T03:54:09;11.27;;;1.90;;
10711;SDS011;5407;51.234;6.804;2023-07-13T03:56:36;6.53;;;2.05;;
10711;SDS011;5407;51.234;6.804;2023-07-13T03:59:05;4.65;;;2.00;;
10711;SDS011;5407;51.234;6.804;2023-07-13T04:01:32;5.20;;;2.00;;
10711;SDS011;5407;51.234;6.804;2023-07-13T04:03:59;5.63;;;1.92;;
10711;SDS011;5407;51.234;6.804;2023-07-13T04:06:27;6.07;;;2.10;;
10711;SDS011;5407;51.234;6.804;2023-07-13T04:08:57;6.88;;;2.20;;
10711;SDS011;5407;51.234;6.804;2023-07-13T04:11:26;7.57;;;2.22;;
10711;SDS011;5407;51.234;6.804;2023-07-13T04:13:54;5.93;;;2.10;;
10711;SDS011;5407;51.234;6.804;2023-07-13T04:16:21;8.55;;;2.30;;
10711;SDS011;5407;51.234;6.804;2023-07-13T04:18:48;6.90;;;2.38;;
10711;SDS011;5407;51.234;6.804;2023-07-13T04:21:16;9.88;;;2.88;;
10711;SDS011;5407;51.234;6.804;2023-07-13T04:23:43;9.80;;;2.40;;
10711;SDS011;5407;51.234;6.804;2023-07-13T04:26:11;12.60;;;2.38;;
10711;SDS011;5407;51.234;6.804;2023-07-13T04:28:38;6.15;;;2.22;;
10711;SDS011;5407;51.234;6.804;2023-07-13T04:31:05;5.50;;;2.22;;
10711;SDS011;5407;51.234;6.804;2023-07-13T04:33:32;9.77;;;2.25;;
10711;SDS011;5407;51.234;6.804;2023-07-13T04:35:59;7.10;;;2.20;;
10711;SDS011;5407;51.234;6.804;2023-07-13T04:38:28;7.55;;;2.45;;
10711;SDS011;5407;51.234;6.804;2023-07-13T04:40:56;6.65;;;2.28;;
10711;SDS011;5407;51.234;6.804;2023-07-13T04:43:26;11.13;;;2.40;;
10711;SDS011;5407;51.234;6.804;2023-07-13T04:45:54;8.43;;;2.13;;
10711;SDS011;5407;51.234;6.804;2023-07-13T04:48:21;6.10;;;2.20;;
10711;SDS011;5407;51.234;6.804;2023-07-13T04:50:54;5.25;;;2.33;;
10711;SDS011;5407;51.234;6.804;2023-07-13T04:53:21;7.32;;;2.17;;
10711;SDS011;5407;51.234;6.804;2023-07-13T04:55:47;6.80;;;2.47;;
10711;SDS011;5407;51.234;6.804;2023-07-13T04:58:14;10.98;;;2.25;;
10711;SDS011;5407;51.234;6.804;2023-07-13T05:00:43;6.63;;;2.17;;
10711;SDS011;5407;51.234;6.804;2023-07-13T05:03:10;7.40;;;2.40;;
10711;SDS011;5407;51.234;6.804;2023-07-13T05:05:37;5.65;;;1.92;;
10711;SDS011;5407;51.234;6.804;2023-07-13T05:08:03;5.30;;;2.25;;
10711;SDS011;5407;51.234;6.804;2023-07-13T05:10:30;5.25;;;2.22;;
10711;SDS011;5407;51.234;6.804;2023-07-13T05:12:57;7.75;;;2.33;;
10711;SDS011;5407;51.234;6.804;2023-07-13T05:15:24;8.40;;;2.42;;
10711;SDS011;5407;51.234;6.804;2023-07-13T05:17:53;5.88;;;2.40;;
10711;SDS011;5407;51.234;6.804;2023-07-13T05:20:19;10.27;;;2.53;;
10711;SDS011;5407;51.234;6.804;2023-07-13T05:22:46;9.55;;;2.50;;
10711;SDS011;5407;51.234;6.804;2023-07-13T05:25:13;8.07;;;2.45;;
10711;SDS011;5407;51.234;6.804;2023-07-13T05:27:40;12.07;;;2.58;;
10711;SDS011;5407;51.234;6.804;2023-07-13T05:30:08;8.95;;;2.28;;
10711;SDS011;5407;51.234;6.804;2023-07-13T05:32:37;10.15;;;2.45;;
10711;SDS011;5407;51.234;6.804;2023-07-13T05:35:06;8.43;;;2.42;;
10711;SDS011;5407;51.234;6.804;2023-07-13T05:37:33;8.07;;;2.60;;
10711;SDS011;5407;51.234;6.804;2023-07-13T05:40:00;6.85;;;2.50;;
10711;SDS011;5407;51.234;6.804;2023-07-13T05:42:27;6.93;;;2.42;;
10711;SDS011;5407;51.234;6.804;2023-07-13T05:44:56;7.32;;;2.50;;
10711;SDS011;5407;51.234;6.804;2023-07-13T05:47:23;8.02;;;2.53;;
10711;SDS011;5407;51.234;6.804;2023-07-13T05:49:50;8.90;;;2.60;;
10711;SDS011;5407;51.234;6.804;2023-07-13T05:52:18;8.02;;;2.92;;
10711;SDS011;5407;51.234;6.804;2023-07-13T05:54:45;8.18;;;2.78;;
10711;SDS011;5407;51.234;6.804;2023-07-13T05:57:12;6.40;;;2.78;;
10711;SDS011;5407;51.234;6.804;2023-07-13T05:59:38;12.18;;;3.20;;
10711;SDS011;5407;51.234;6.804;2023-07-13T06:02:07;12.40;;;3.50;;
10711;SDS011;5407;51.234;6.804;2023-07-13T06:04:36;9.65;;;3.00;;
10711;SDS011;5407;51.234;6.804;2023-07-13T06:07:02;10.90;;;3.22;;
10711;SDS011;5407;51.234;6.804;2023-07-13T06:09:31;12.57;;;2.90;;
10711;SDS011;5407;51.234;6.804;2023-07-13T06:11:58;9.30;;;3.10;;
10711;SDS011;5407;51.234;6.804;2023-07-13T06:14:25;9.07;;;2.75;;
10711;SDS011;5407;51.234;6.804;2023-07-13T06:16:52;6.55;;;2.63;;
10711;SDS011;5407;51.234;6.804;2023-07-13T06:19:19;13.68;;;3.15;;
10711;SDS011;5407;51.234;6.804;2023-07-13T06:21:45;11.30;;;2.67;;
10711;SDS011;5407;51.234;6.804;2023-07-13T06:24:12;9.88;;;2.53;;
10711;SDS011;5407;51.234;6.804;2023-07-13T06:26:41;11.13;;;3.20;;
10711;SDS011;5407;51.234;6.804;2023-07-13T06:29:07;9.90;;;2.70;;
10711;SDS011;5407;51.234;6.804;2023-07-13T06:31:34;11.88;;;3.67;;
10711;SDS011;5407;51.234;6.804;2023-07-13T06:34:01;8.77;;;2.85;;
10711;SDS011;5407;51.234;6.804;2023-07-13T06:36:28;11.68;;;3.00;;
10711;SDS011;5407;51.234;6.804;2023-07-13T06:38:55;14.93;;;3.22;;
10711;SDS011;5407;51.234;6.804;2023-07-13T06:41:22;12.48;;;3.35;;
10711;SDS011;5407;51.234;6.804;2023-07-13T06:43:52;13.20;;;3.28;;
10711;SDS011;5407;51.234;6.804;2023-07-13T06:46:20;11.80;;;3.58;;
10711;SDS011;5407;51.234;6.804;2023-07-13T06:48:47;10.85;;;3.30;;
10711;SDS011;5407;51.234;6.804;2023-07-13T06:51:14;8.43;;;2.83;;
10711;SDS011;5407;51.234;6.804;2023-07-13T06:53:41;10.57;;;3.13;;
10711;SDS011;5407;51.234;6.804;2023-07-13T06:56:09;6.18;;;2.90;;
10711;SDS011;5407;51.234;6.804;2023-07-13T06:58:36;11.77;;;3.00;;
10711;SDS011;5407;51.234;6.804;2023-07-13T07:01:05;9.82;;;3.30;;
10711;SDS011;5407;51.234;6.804;2023-07-13T07:03:32;13.25;;;3.25;;
10711;SDS011;5407;51.234;6.804;2023-07-13T07:06:03;10.20;;;3.15;;
10711;SDS011;5407;51.234;6.804;2023-07-13T07:08:36;9.00;;;3.25;;
10711;SDS011;5407;51.234;6.804;2023-07-13T07:11:03;7.03;;;2.85;;
10711;SDS011;5407;51.234;6.804;2023-07-13T07:13:30;8.43;;;3.10;;
10711;SDS011;5407;51.234;6.804;2023-07-13T07:15:57;8.68;;;3.10;;
10711;SDS011;5407;51.234;6.804;2023-07-13T07:18:26;8.23;;;3.05;;
10711;SDS011;5407;51.234;6.804;2023-07-13T07:20:54;11.73;;;3.58;;
10711;SDS011;5407;51.234;6.804;2023-07-13T07:23:21;9.50;;;2.92;;
10711;SDS011;5407;51.234;6.804;2023-07-13T07:25:48;8.73;;;2.72;;
10711;SDS011;5407;51.234;6.804;2023-07-13T07:28:17;11.27;;;3.28;;
10711;SDS011;5407;51.234;6.804;2023-07-13T07:30:44;9.50;;;4.18;;
10711;SDS011;5407;51.234;6.804;2023-07-13T07:33:11;9.60;;;3.03;;
10711;SDS011;5407;51.234;6.804;2023-07-13T07:35:40;9.68;;;3.15;;
10711;SDS011;5407;51.234;6.804;2023-07-13T07:38:07;10.55;;;3.10;;
10711;SDS011;5407;51.234;6.804;2023-07-13T07:40:36;7.97;;;2.88;;
10711;SDS011;5407;51.234;6.804;2023-07-13T07:43:03;7.82;;;2.85;;
10711;SDS011;5407;51.234;6.804;2023-07-13T07:45:30;11.10;;;3.50;;
10711;SDS011;5407;51.234;6.804;2023-07-13T07:47:57;9.32;;;3.05;;
10711;SDS011;5407;51.234;6.804;2023-07-13T07:50:24;10.00;;;2.90;;
10711;SDS011;5407;51.234;6.804;2023-07-13T07:52:52;10.55;;;2.72;;
10711;SDS011;5407;51.234;6.804;2023-07-13T07:55:21;8.52;;;3.03;;
10711;SDS011;5407;51.234;6.804;2023-07-13T07:57:49;13.02;;;3.88;;
10711;SDS011;5407;51.234;6.804;2023-07-13T08:00:16;8.35;;;3.17;;
10711;SDS011;5407;51.234;6.804;2023-07-13T08:02:46;8.43;;;3.03;;
10711;SDS011;5407;51.234;6.804;2023-07-13T08:05:14;9.18;;;3.20;;
10711;SDS011;5407;51.234;6.804;2023-07-13T08:07:41;8.68;;;2.80;;
10711;SDS011;5407;51.234;6.804;2023-07-13T08:10:09;10.07;;;3.42;;
10711;SDS011;5407;51.234;6.804;2023-07-13T08:12:37;11.82;;;3.20;;
10711;SDS011;5407;51.234;6.804;2023-07-13T08:15:06;9.95;;;3.00;;
10711;SDS011;5407;51.234;6.804;2023-07-13T08:17:36;10.57;;;3.50;;
10711;SDS011;5407;51.234;6.804;2023-07-13T08:20:03;9.55;;;3.00;;
10711;SDS011;5407;51.234;6.804;2023-07-13T08:22:31;11.80;;;3.40;;
10711;SDS011;5407;51.234;6.804;2023-07-13T08:24:58;10.20;;;3.58;;
10711;SDS011;5407;51.234;6.804;2023-07-13T08:27:27;7.60;;;3.03;;
10711;SDS011;5407;51.234;6.804;2023-07-13T08:29:55;11.38;;;3.15;;
10711;SDS011;5407;51.234;6.804;2023-07-13T08:32:22;7.80;;;3.00;;
10711;SDS011;5407;51.234;6.804;2023-07-13T08:34:50;8.20;;;2.65;;
10711;SDS011;5407;51.234;6.804;2023-07-13T08:37:17;10.10;;;3.00;;
10711;SDS011;5407;51.234;6.804;2023-07-13T08:39:44;7.25;;;2.70;;
10711;SDS011;5407;51.234;6.804;2023-07-13T08:42:13;12.93;;;3.28;;
10711;SDS011;5407;51.234;6.804;2023-07-13T08:44:49;8.15;;;2.85;;
10711;SDS011;5407;51.234;6.804;2023-07-13T08:47:23;9.57;;;2.78;;
10711;SDS011;5407;51.234;6.804;2023-07-13T08:49:51;8.55;;;2.95;;
10711;SDS011;5407;51.234;6.804;2023-07-13T08:52:22;8.32;;;2.92;;
10711;SDS011;5407;51.234;6.804;2023-07-13T08:54:56;11.75;;;3.45;;
10711;SDS011;5407;51.234;6.804;2023-07-13T08:57:30;8.57;;;3.50;;
10711;SDS011;5407;51.234;6.804;2023-07-13T09:00:01;12.35;;;3.40;;
10711;SDS011;5407;51.234;6.804;2023-07-13T09:02:34;11.48;;;3.20;;
10711;SDS011;5407;51.234;6.804;2023-07-13T09:05:10;10.68;;;3.22;;
10711;SDS011;5407;51.234;6.804;2023-07-13T09:07:48;8.82;;;2.85;;
10711;SDS011;5407;51.234;6.804;2023-07-13T09:10:26;8.27;;;2.95;;
10711;SDS011;5407;51.234;6.804;2023-07-13T09:12:57;17.15;;;3.35;;
10711;SDS011;5407;51.234;6.804;2023-07-13T09:15:39;10.15;;;3.17;;
10711;SDS011;5407;51.234;6.804;2023-07-13T09:18:09;11.05;;;3.40;;
10711;SDS011;5407;51.234;6.804;2023-07-13T09:20:42;10.85;;;3.22;;
10711;SDS011;5407;51.234;6.804;2023-07-13T09:23:14;11.05;;;3.63;;
10711;SDS011;5407;51.234;6.804;2023-07-13T09:25:43;10.75;;;3.30;;
10711;SDS011;5407;51.234;6.804;2023-07-13T09:28:14;10.20;;;2.88;;
10711;SDS011;5407;51.234;6.804;2023-07-13T09:30:49;11.85;;;3.25;;
10711;SDS011;5407;51.234;6.804;2023-07-13T09:33:19;8.82;;;3.20;;
10711;SDS011;5407;51.234;6.804;2023-07-13T09:35:46;11.43;;;3.40;;
10711;SDS011;5407;51.234;6.804;2023-07-13T09:38:13;9.55;;;2.97;;
10711;SDS011;5407;51.234;6.804;2023-07-13T09:40:45;11.63;;;2.95;;
10711;SDS011;5407;51.234;6.804;2023-07-13T09:43:21;12.27;;;3.13;;
10711;SDS011;5407;51.234;6.804;2023-07-13T09:45:50;6.13;;;2.45;;
10711;SDS011;5407;51.234;6.804;2023-07-13T09:48:17;6.80;;;2.72;;
10711;SDS011;5407;51.234;6.804;2023-07-13T09:50:44;10.90;;;3.03;;
10711;SDS011;5407;51.234;6.804;2023-07-13T09:53:12;10.27;;;3.00;;
10711;SDS011;5407;51.234;6.804;2023-07-13T09:55:41;7.80;;;2.70;;
10711;SDS011;5407;51.234;6.804;2023-07-13T09:58:10;8.75;;;2.65;;
10711;SDS011;5407;51.234;6.804;2023-07-13T10:00:40;8.38;;;2.72;;
10711;SDS011;5407;51.234;6.804;2023-07-13T10:03:17;9.00;;;2.88;;
10711;SDS011;5407;51.234;6.804;2023-07-13T10:05:46;10.20;;;2.97;;
10711;SDS011;5407;51.234;6.804;2023-07-13T10:08:19;8.70;;;2.80;;
10711;SDS011;5407;51.234;6.804;2023-07-13T10:10:52;8.43;;;2.67;;
10711;SDS011;5407;51.234;6.804;2023-07-13T10:13:25;8.73;;;2.72;;
10711;SDS011;5407;51.234;6.804;2023-07-13T10:15:55;7.07;;;2.63;;
10711;SDS011;5407;51.234;6.804;2023-07-13T10:18:25;7.45;;;2.70;;
10711;SDS011;5407;51.234;6.804;2023-07-13T10:20:58;9.90;;;3.10;;
10711;SDS011;5407;51.234;6.804;2023-07-13T10:23:37;5.40;;;2.30;;
10711;SDS011;5407;51.234;6.804;2023-07-13T10:26:05;10.23;;;2.95;;
10711;SDS011;5407;51.234;6.804;2023-07-13T10:28:39;6.80;;;2.60;;
10711;SDS011;5407;51.234;6.804;2023-07-13T10:31:10;6.75;;;2.67;;
10711;SDS011;5407;51.234;6.804;2023-07-13T10:33:42;9.48;;;2.40;;
10711;SDS011;5407;51.234;6.804;2023-07-13T10:36:12;7.57;;;2.50;;
10711;SDS011;5407;51.234;6.804;2023-07-13T10:38:44;10.00;;;2.65;;
10711;SDS011;5407;51.234;6.804;2023-07-13T10:41:15;13.52;;;3.47;;
10711;SDS011;5407;51.234;6.804;2023-07-13T10:43:46;7.13;;;2.20;;
10711;SDS011;5407;51.234;6.804;2023-07-13T10:46:18;9.15;;;2.65;;
10711;SDS011;5407;51.234;6.804;2023-07-13T10:48:49;4.15;;;2.28;;
10711;SDS011;5407;51.234;6.804;2023-07-13T10:51:20;9.10;;;2.90;;
10711;SDS011;5407;51.234;6.804;2023-07-13T10:53:48;9.25;;;2.63;;
10711;SDS011;5407;51.234;6.804;2023-07-13T10:56:41;4.78;;;2.42;;
10711;SDS011;5407;51.234;6.804;2023-07-13T10:59:11;7.80;;;2.95;;
10711;SDS011;5407;51.234;6.804;2023-07-13T11:01:46;6.22;;;2.70;;
10711;SDS011;5407;51.234;6.804;2023-07-13T11:04:19;7.18;;;2.40;;
10711;SDS011;5407;51.234;6.804;2023-07-13T11:06:48;8.38;;;2.78;;
10711;SDS011;5407;51.234;6.804;2023-07-13T11:09:18;5.97;;;2.40;;
10711;SDS011;5407;51.234;6.804;2023-07-13T11:12:02;7.68;;;2.28;;
10711;SDS011;5407;51.234;6.804;2023-07-13T11:14:35;6.30;;;2.50;;
10711;SDS011;5407;51.234;6.804;2023-07-13T11:20:32;7.82;;;2.50;;
10711;SDS011;5407;51.234;6.804;2023-07-13T11:23:08;5.03;;;2.50;;
10711;SDS011;5407;51.234;6.804;2023-07-13T11:25:44;5.38;;;2.33;;
10711;SDS011;5407;51.234;6.804;2023-07-13T11:28:20;8.05;;;2.38;;
10711;SDS011;5407;51.234;6.804;2023-07-13T11:30:50;9.77;;;2.80;;
10711;SDS011;5407;51.234;6.804;2023-07-13T11:33:45;5.35;;;2.33;;
10711;SDS011;5407;51.234;6.804;2023-07-13T11:36:28;7.50;;;2.40;;
10711;SDS011;5407;51.234;6.804;2023-07-13T11:38:59;7.15;;;2.30;;
10711;SDS011;5407;51.234;6.804;2023-07-13T11:41:30;7.25;;;2.47;;
10711;SDS011;5407;51.234;6.804;2023-07-13T11:44:10;6.68;;;2.65;;
10711;SDS011;5407;51.234;6.804;2023-07-13T11:46:43;5.65;;;2.38;;
10711;SDS011;5407;51.234;6.804;2023-07-13T11:49:14;5.03;;;2.15;;
10711;SDS011;5407;51.234;6.804;2023-07-13T11:51:44;6.35;;;2.20;;
10711;SDS011;5407;51.234;6.804;2023-07-13T11:54:15;11.25;;;2.45;;
10711;SDS011;5407;51.234;6.804;2023-07-13T11:56:50;10.00;;;2.63;;
10711;SDS011;5407;51.234;6.804;2023-07-13T11:59:17;5.97;;;2.35;;
10711;SDS011;5407;51.234;6.804;2023-07-13T12:01:49;9.65;;;2.30;;
10711;SDS011;5407;51.234;6.804;2023-07-13T12:04:20;5.95;;;2.55;;
10711;SDS011;5407;51.234;6.804;2023-07-13T12:06:57;6.55;;;2.20;;
10711;SDS011;5407;51.234;6.804;2023-07-13T12:09:30;4.53;;;2.35;;
10711;SDS011;5407;51.234;6.804;2023-07-13T12:11:57;5.68;;;2.10;;
10711;SDS011;5407;51.234;6.804;2023-07-13T12:14:26;4.30;;;2.13;;
10711;SDS011;5407;51.234;6.804;2023-07-13T12:16:53;8.07;;;2.33;;
10711;SDS011;5407;51.234;6.804;2023-07-13T12:19:22;4.32;;;1.88;;
10711;SDS011;5407;51.234;6.804;2023-07-13T12:21:50;4.53;;;1.92;;
10711;SDS011;5407;51.234;6.804;2023-07-13T12:24:21;4.35;;;2.33;;
10711;SDS011;5407;51.234;6.804;2023-07-13T12:26:52;5.75;;;2.22;;
10711;SDS011;5407;51.234;6.804;2023-07-13T12:29:20;6.13;;;2.17;;
10711;SDS011;5407;51.234;6.804;2023-07-13T12:31:48;5.03;;;2.00;;
10711;SDS011;5407;51.234;6.804;2023-07-13T12:34:18;4.97;;;2.13;;
10711;SDS011;5407;51.234;6.804;2023-07-13T12:36:47;6.93;;;2.10;;
10711;SDS011;5407;51.234;6.804;2023-07-13T12:39:18;6.28;;;1.90;;
10711;SDS011;5407;51.234;6.804;2023-07-13T12:41:49;3.97;;;1.98;;
10711;SDS011;5407;51.234;6.804;2023-07-13T12:44:17;4.57;;;2.00;;
10711;SDS011;5407;51.234;6.804;2023-07-13T12:46:53;5.97;;;2.33;;
10711;SDS011;5407;51.234;6.804;2023-07-13T12:49:24;5.90;;;2.22;;
10711;SDS011;5407;51.234;6.804;2023-07-13T12:51:57;5.00;;;2.40;;
10711;SDS011;5407;51.234;6.804;2023-07-13T12:54:27;5.40;;;2.30;;
10711;SDS011;5407;51.234;6.804;2023-07-13T12:56:55;4.82;;;2.92;;
10711;SDS011;5407;51.234;6.804;2023-07-13T12:59:25;5.13;;;2.47;;
10711;SDS011;5407;51.234;6.804;2023-07-13T13:01:58;5.90;;;2.40;;
10711;SDS011;5407;51.234;6.804;2023-07-13T13:04:26;6.15;;;2.40;;
10711;SDS011;5407;51.234;6.804;2023-07-13T13:07:00;4.53;;;2.20;;
10711;SDS011;5407;51.234;6.804;2023-07-13T13:09:29;6.80;;;2.10;;
10711;SDS011;5407;51.234;6.804;2023-07-13T13:11:56;7.65;;;2.30;;
10711;SDS011;5407;51.234;6.804;2023-07-13T13:14:23;5.82;;;2.20;;
10711;SDS011;5407;51.234;6.804;2023-07-13T13:16:50;4.20;;;1.90;;
10711;SDS011;5407;51.234;6.804;2023-07-13T13:19:20;7.63;;;2.15;;
10711;SDS011;5407;51.234;6.804;2023-07-13T13:21:49;5.07;;;2.20;;
10711;SDS011;5407;51.234;6.804;2023-07-13T13:24:18;4.57;;;2.13;;
10711;SDS011;5407;51.234;6.804;2023-07-13T13:26:48;4.90;;;2.33;;
10711;SDS011;5407;51.234;6.804;2023-07-13T13:29:18;6.10;;;2.40;;
10711;SDS011;5407;51.234;6.804;2023-07-13T13:31:46;4.22;;;2.08;;
10711;SDS011;5407;51.234;6.804;2023-07-13T13:34:15;6.10;;;2.08;;
10711;SDS011;5407;51.234;6.804;2023-07-13T13:36:43;8.13;;;2.20;;
10711;SDS011;5407;51.234;6.804;2023-07-13T13:39:16;5.30;;;2.03;;
10711;SDS011;5407;51.234;6.804;2023-07-13T13:41:46;6.70;;;2.03;;
10711;SDS011;5407;51.234;6.804;2023-07-13T13:44:15;4.68;;;1.85;;
10711;SDS011;5407;51.234;6.804;2023-07-13T13:46:44;4.57;;;2.22;;
10711;SDS011;5407;51.234;6.804;2023-07-13T13:49:13;5.85;;;2.38;;
10711;SDS011;5407;51.234;6.804;2023-07-13T13:51:42;4.50;;;2.30;;
10711;SDS011;5407;51.234;6.804;2023-07-13T13:54:11;7.10;;;2.25;;
10711;SDS011;5407;51.234;6.804;2023-07-13T13:56:41;5.38;;;2.10;;
10711;SDS011;5407;51.234;6.804;2023-07-13T13:59:09;5.22;;;2.00;;
10711;SDS011;5407;51.234;6.804;2023-07-13T14:01:37;3.67;;;1.90;;
10711;SDS011;5407;51.234;6.804;2023-07-13T14:04:05;3.65;;;1.90;;
10711;SDS011;5407;51.234;6.804;2023-07-13T14:06:33;7.50;;;2.30;;
10711;SDS011;5407;51.234;6.804;2023-07-13T14:09:00;4.30;;;2.00;;
10711;SDS011;5407;51.234;6.804;2023-07-13T14:11:29;4.47;;;2.05;;
10711;SDS011;5407;51.234;6.804;2023-07-13T14:13:58;4.00;;;2.17;;
10711;SDS011;5407;51.234;6.804;2023-07-13T14:16:28;3.75;;;2.05;;
10711;SDS011;5407;51.234;6.804;2023-07-13T14:18:58;4.03;;;1.90;;
10711;SDS011;5407;51.234;6.804;2023-07-13T14:21:26;6.18;;;2.40;;
10711;SDS011;5407;51.234;6.804;2023-07-13T14:23:54;7.20;;;1.88;;
10711;SDS011;5407;51.234;6.804;2023-07-13T14:26:22;5.95;;;2.10;;
10711;SDS011;5407;51.234;6.804;2023-07-13T14:28:52;7.85;;;2.38;;
10711;SDS011;5407;51.234;6.804;2023-07-13T14:31:20;8.77;;;2.22;;
10711;SDS011;5407;51.234;6.804;2023-07-13T14:33:48;7.72;;;2.10;;
10711;SDS011;5407;51.234;6.804;2023-07-13T14:36:23;6.70;;;2.17;;
10711;SDS011;5407;51.234;6.804;2023-07-13T14:38:54;7.18;;;2.35;;
10711;SDS011;5407;51.234;6.804;2023-07-13T14:41:22;5.00;;;2.28;;
10711;SDS011;5407;51.234;6.804;2023-07-13T14:43:49;7.53;;;2.45;;
10711;SDS011;5407;51.234;6.804;2023-07-13T14:46:18;6.80;;;2.22;;
10711;SDS011;5407;51.234;6.804;2023-07-13T14:48:59;6.47;;;2.60;;
10711;SDS011;5407;51.234;6.804;2023-07-13T14:51:30;4.43;;;2.22;;
10711;SDS011;5407;51.234;6.804;2023-07-13T14:53:58;5.03;;;2.20;;
10711;SDS011;5407;51.234;6.804;2023-07-13T14:56:27;3.88;;;2.33;;
10711;SDS011;5407;51.234;6.804;2023-07-13T14:58:54;5.25;;;2.35;;
10711;SDS011;5407;51.234;6.804;2023-07-13T15:01:21;6.47;;;2.10;;
10711;SDS011;5407;51.234;6.804;2023-07-13T15:03:49;6.40;;;2.42;;
10711;SDS011;5407;51.234;6.804;2023-07-13T15:06:17;6.15;;;2.33;;
10711;SDS011;5407;51.234;6.804;2023-07-13T15:08:47;7.85;;;2.53;;
10711;SDS011;5407;51.234;6.804;2023-07-13T15:11:14;6.65;;;2.28;;
10711;SDS011;5407;51.234;6.804;2023-07-13T15:13:42;2.95;;;1.73;;
10711;SDS011;5407;51.234;6.804;2023-07-13T15:16:14;7.47;;;2.28;;
10711;SDS011;5407;51.234;6.804;2023-07-13T15:18:43;10.00;;;2.53;;
10711;SDS011;5407;51.234;6.804;2023-07-13T15:21:11;6.57;;;2.40;;
10711;SDS011;5407;51.234;6.804;2023-07-13T15:23:40;8.05;;;2.17;;